createdAt,value
2019-05-10T00:00:35.933Z,12.26
2019-05-10T00:03:25.774Z,11.71
2019-05-10T00:06:16.229Z,11.20
2019-05-10T00:08:47.327Z,12.34
2019-05-10T00:11:33.778Z,14.06
2019-05-10T00:14:24.153Z,15.81
2019-05-10T00:16:57.828Z,15.60
2019-05-10T00:19:29.647Z,14.68
2019-05-10T00:22:01.197Z,13.92
2019-05-10T00:24:33.020Z,13.27
2019-05-10T00:27:05.031Z,12.71
2019-05-10T00:29:36.828Z,12.16
2019-05-10T00:32:08.626Z,11.65
2019-05-10T00:34:40.356Z,11.16
2019-05-10T00:37:12.084Z,10.72
2019-05-10T00:39:44.584Z,11.59
2019-05-10T00:42:16.220Z,13.48
2019-05-10T00:44:47.951Z,15.10
2019-05-10T00:47:19.673Z,15.07
2019-05-10T00:49:51.505Z,14.20
2019-05-10T00:52:23.242Z,13.42
2019-05-10T00:54:54.965Z,12.80
2019-05-10T00:57:26.796Z,12.24
2019-05-10T00:59:58.528Z,11.68
2019-05-10T01:02:30.270Z,11.20
2019-05-10T01:05:01.997Z,10.71
2019-05-10T01:07:33.849Z,10.30
2019-05-10T01:10:07.795Z,11.17
2019-05-10T01:12:39.345Z,13.08
2019-05-10T01:15:12.117Z,14.76
2019-05-10T01:17:43.953Z,14.86
2019-05-10T01:20:15.759Z,13.93
2019-05-10T01:22:47.383Z,13.16
2019-05-10T01:25:33.924Z,12.52
2019-05-10T01:27:53.046Z,11.97
2019-05-10T01:30:24.876Z,11.48
2019-05-10T01:32:56.775Z,11.03
2019-05-10T01:35:28.701Z,10.60
2019-05-10T01:38:02.277Z,11.65
2019-05-10T01:40:34.008Z,13.58
2019-05-10T01:43:06.136Z,15.22
2019-05-10T01:45:37.859Z,15.07
2019-05-10T01:48:10.987Z,14.14
2019-05-10T01:50:43.753Z,13.38
2019-05-10T01:53:15.587Z,12.73
2019-05-10T01:55:52.315Z,12.17
2019-05-10T01:58:20.920Z,11.65
2019-05-10T02:00:52.751Z,11.14
2019-05-10T02:03:24.483Z,10.67
2019-05-10T02:05:56.215Z,10.20
2019-05-10T02:08:27.950Z,9.81
2019-05-10T02:11:00.359Z,10.88
2019-05-10T02:13:32.086Z,12.87
2019-05-10T02:16:03.916Z,14.55
2019-05-10T02:18:35.641Z,14.48
2019-05-10T02:21:07.396Z,13.53
2019-05-10T02:23:39.125Z,12.82
2019-05-10T02:26:10.925Z,12.19
2019-05-10T02:28:42.659Z,11.61
2019-05-10T02:31:14.398Z,11.10
2019-05-10T02:33:46.125Z,10.61
2019-05-10T02:36:17.962Z,10.20
2019-05-10T02:38:49.685Z,9.77
2019-05-10T02:41:21.414Z,10.83
2019-05-10T02:43:53.249Z,12.89
2019-05-10T02:46:25.063Z,14.58
2019-05-10T02:48:56.685Z,14.53
2019-05-10T02:51:28.786Z,13.66
2019-05-10T02:54:01.149Z,12.92
2019-05-10T02:56:33.818Z,12.28
2019-05-10T02:59:06.780Z,11.73
2019-05-10T03:01:44.594Z,11.23
2019-05-10T03:04:16.586Z,10.78
2019-05-10T03:06:51.257Z,10.36
2019-05-10T03:09:27.768Z,11.33
2019-05-10T03:12:08.180Z,13.18
2019-05-10T03:14:42.727Z,14.82
2019-05-10T03:17:16.205Z,14.72
2019-05-10T03:19:53.626Z,13.80
2019-05-10T03:22:26.494Z,13.06
2019-05-10T03:24:58.237Z,12.48
2019-05-10T03:27:29.957Z,11.93
2019-05-10T03:30:01.780Z,11.44
2019-05-10T03:32:33.502Z,10.95
2019-05-10T03:35:07.637Z,10.49
2019-05-10T03:37:39.734Z,11.40
2019-05-10T03:40:11.841Z,13.10
2019-05-10T03:42:43.562Z,14.51
2019-05-10T03:45:15.522Z,14.48
2019-05-10T03:47:48.662Z,13.68
2019-05-10T03:50:20.390Z,13.00
2019-05-10T03:52:52.785Z,12.44
2019-05-10T03:55:24.524Z,11.99
2019-05-10T03:57:56.260Z,11.54
2019-05-10T04:00:28.468Z,11.10
2019-05-10T04:03:00.104Z,11.89
2019-05-10T04:05:31.835Z,13.65
2019-05-10T04:08:04.451Z,15.04
2019-05-10T04:10:35.973Z,14.94
2019-05-10T04:13:07.798Z,14.13
2019-05-10T04:15:39.589Z,13.44
2019-05-10T04:18:11.337Z,12.89
2019-05-10T04:20:43.069Z,12.47
2019-05-10T04:23:15.276Z,12.04
2019-05-10T04:25:46.903Z,12.10
2019-05-10T04:28:18.642Z,13.79
2019-05-10T04:30:50.370Z,15.35
2019-05-10T04:33:22.095Z,15.50
2019-05-10T04:35:53.630Z,14.75
2019-05-10T04:38:25.366Z,14.00
2019-05-10T04:40:59.181Z,13.49
2019-05-10T04:43:32.699Z,13.06
2019-05-10T04:46:04.959Z,12.68
2019-05-10T04:48:36.716Z,12.35
2019-05-10T04:51:08.456Z,13.25
2019-05-10T04:53:40.193Z,14.94
2019-05-10T04:56:12.016Z,15.91
2019-05-10T04:58:43.733Z,15.30
2019-05-10T05:01:16.985Z,14.66
2019-05-10T05:03:48.822Z,14.11
2019-05-10T05:06:20.555Z,13.69
2019-05-10T05:08:53.134Z,13.33
2019-05-10T05:11:24.655Z,12.95
2019-05-10T05:13:56.412Z,12.68
2019-05-10T05:16:28.137Z,14.14
2019-05-10T05:18:59.997Z,15.88
2019-05-10T05:21:31.727Z,15.95
2019-05-10T05:24:03.475Z,15.24
2019-05-10T05:26:35.198Z,14.66
2019-05-10T05:29:06.942Z,14.23
2019-05-10T05:31:38.777Z,13.83
2019-05-10T05:34:10.503Z,13.46
2019-05-10T05:36:42.375Z,14.39
2019-05-10T05:39:14.014Z,16.42
2019-05-10T05:41:51.648Z,16.57
2019-05-10T05:44:20.312Z,15.88
2019-05-10T05:46:52.405Z,15.28
2019-05-10T05:49:25.000Z,14.93
2019-05-10T05:51:56.831Z,14.59
2019-05-10T05:54:28.557Z,14.27
2019-05-10T05:57:00.297Z,13.98
2019-05-10T05:59:32.039Z,14.35
2019-05-10T06:02:07.478Z,16.11
2019-05-10T06:04:40.791Z,16.52
2019-05-10T06:07:10.688Z,15.95
2019-05-10T06:09:42.552Z,15.42
2019-05-10T06:12:14.965Z,15.05
2019-05-10T06:14:49.730Z,14.75
2019-05-10T06:17:23.769Z,14.53
2019-05-10T06:19:53.534Z,14.28
2019-05-10T06:22:26.239Z,15.46
2019-05-10T06:24:58.002Z,17.12
2019-05-10T06:27:35.250Z,16.94
2019-05-10T06:30:06.294Z,16.43
2019-05-10T06:32:38.124Z,16.07
2019-05-10T06:35:14.088Z,15.81
2019-05-10T06:37:44.415Z,15.56
2019-05-10T06:40:16.542Z,15.30
2019-05-10T06:42:48.275Z,15.10
2019-05-10T06:45:20.015Z,14.90
2019-05-10T06:47:53.414Z,15.84
2019-05-10T06:50:30.143Z,17.29
2019-05-10T06:53:00.675Z,16.98
2019-05-10T06:55:32.613Z,16.67
2019-05-10T06:58:04.358Z,16.40
2019-05-10T07:00:38.050Z,16.24
2019-05-10T07:03:09.444Z,16.04
2019-05-10T07:05:41.182Z,16.00
2019-05-10T07:08:17.535Z,15.91
2019-05-10T07:10:46.459Z,16.00
2019-05-10T07:13:18.299Z,17.80
2019-05-10T07:15:50.041Z,18.53
2019-05-10T07:18:24.283Z,18.16
2019-05-10T07:21:00.911Z,17.94
2019-05-10T07:23:30.314Z,17.78
2019-05-10T07:26:02.276Z,17.74
2019-05-10T07:28:34.083Z,17.80
2019-05-10T07:31:05.832Z,17.94
2019-05-10T07:33:40.180Z,18.01
2019-05-10T07:36:20.249Z,18.11
2019-05-10T07:38:53.768Z,18.20
2019-05-10T07:41:29.164Z,18.44
2019-05-10T07:44:08.198Z,18.60
2019-05-10T07:46:39.874Z,18.71
2019-05-10T07:49:23.665Z,18.82
2019-05-10T07:51:45.274Z,18.99
2019-05-10T07:54:17.181Z,19.29
2019-05-10T07:56:49.990Z,19.91
2019-05-10T07:59:27.985Z,20.60
2019-05-10T08:01:55.802Z,21.10
2019-05-10T08:04:31.839Z,21.76
2019-05-10T08:07:02.247Z,22.54
2019-05-10T08:09:41.796Z,23.38
2019-05-10T08:12:12.912Z,24.05
2019-05-10T08:14:44.466Z,24.58
2019-05-10T08:17:19.218Z,25.03
2019-05-10T08:19:51.837Z,25.30
2019-05-10T08:22:24.239Z,25.26
2019-05-10T08:24:56.536Z,25.02
2019-05-10T08:27:28.124Z,24.81
2019-05-10T08:32:34.976Z,24.44
2019-05-10T08:35:16.293Z,24.24
2019-05-10T08:37:43.330Z,23.95
2019-05-10T08:40:19.746Z,23.68
2019-05-10T08:42:54.423Z,23.48
2019-05-10T08:45:22.689Z,23.29
2019-05-10T08:48:00.883Z,23.15
2019-05-10T08:50:43.880Z,22.93
2019-05-10T08:53:04.360Z,22.74
2019-05-10T08:55:34.320Z,22.57
2019-05-10T08:58:06.132Z,22.48
2019-05-10T09:00:49.613Z,22.40
2019-05-10T09:03:18.041Z,22.38
2019-05-10T09:05:47.202Z,22.36
2019-05-10T09:08:20.234Z,22.37
2019-05-10T09:10:52.974Z,22.34
2019-05-10T09:13:28.699Z,22.40
2019-05-10T09:15:58.571Z,22.43
2019-05-10T09:18:30.331Z,22.41
2019-05-10T09:21:08.587Z,22.37
2019-05-10T09:23:35.423Z,22.30
2019-05-10T09:26:10.557Z,22.26
2019-05-10T09:28:42.118Z,22.20
2019-05-10T09:31:22.015Z,22.13
2019-05-10T09:33:49.747Z,22.12
2019-05-10T09:36:23.093Z,22.17
2019-05-10T09:38:54.875Z,22.31
2019-05-10T09:41:27.836Z,22.37
2019-05-10T09:44:02.893Z,22.40
2019-05-10T09:46:35.434Z,22.50
2019-05-10T09:49:15.794Z,22.51
2019-05-10T09:51:45.259Z,22.50
2019-05-10T09:54:23.252Z,22.41
2019-05-10T09:56:54.005Z,22.26
2019-05-10T09:59:27.754Z,22.08
2019-05-10T10:01:59.120Z,21.86
2019-05-10T10:04:31.631Z,21.60
2019-05-10T10:07:04.419Z,21.39
2019-05-10T10:09:42.438Z,21.12
2019-05-10T10:12:10.398Z,20.92
2019-05-10T10:14:43.502Z,20.70
2019-05-10T10:17:18.431Z,20.58
2019-05-10T10:19:49.709Z,20.44
2019-05-10T10:22:21.439Z,20.36
2019-05-10T10:24:55.208Z,20.34
2019-05-10T10:27:34.191Z,20.33
2019-05-10T10:30:00.111Z,20.34
2019-05-10T10:32:37.614Z,20.34
2019-05-10T10:35:13.320Z,20.40
2019-05-10T10:37:44.557Z,20.43
2019-05-10T10:40:18.331Z,20.48
2019-05-10T10:42:50.704Z,20.58
2019-05-10T10:45:22.574Z,20.70
2019-05-10T10:47:57.130Z,20.89
2019-05-10T10:50:27.971Z,21.01
2019-05-10T10:52:59.707Z,21.16
2019-05-10T10:55:36.621Z,21.29
2019-05-10T10:58:07.182Z,21.41
2019-05-10T11:00:39.255Z,21.48
2019-05-10T11:03:11.115Z,21.54
2019-05-10T11:05:42.867Z,21.54
2019-05-10T11:08:14.616Z,21.56
2019-05-10T11:10:46.361Z,21.50
2019-05-10T11:13:40.505Z,21.50
2019-05-10T11:16:09.646Z,21.47
2019-05-10T11:18:35.445Z,21.46
2019-05-10T11:21:07.205Z,21.41
2019-05-10T11:23:41.954Z,21.41
2019-05-10T11:26:13.530Z,21.37
2019-05-10T11:28:45.262Z,21.34
2019-05-10T11:31:17.019Z,21.29
2019-05-10T11:33:56.013Z,21.27
2019-05-10T11:36:22.465Z,21.27
2019-05-10T11:38:58.533Z,21.34
2019-05-10T11:41:31.251Z,21.41
2019-05-10T11:44:05.610Z,21.41
2019-05-10T11:46:37.239Z,21.44
2019-05-10T11:49:10.688Z,21.44
2019-05-10T11:51:47.933Z,21.53
2019-05-10T11:54:16.974Z,21.60
2019-05-10T11:56:58.495Z,21.69
2019-05-10T11:59:33.812Z,21.81
2019-05-10T12:02:09.187Z,21.93
2019-05-10T12:04:42.550Z,22.05
2019-05-10T12:07:12.966Z,22.09
2019-05-10T12:09:45.078Z,22.12
2019-05-10T12:12:16.817Z,22.24
2019-05-10T12:14:48.726Z,22.37
2019-05-10T12:17:24.062Z,22.41
2019-05-10T12:19:56.398Z,22.34
2019-05-10T12:22:32.070Z,22.33
2019-05-10T12:25:23.321Z,22.34
2019-05-10T12:27:44.287Z,22.27
2019-05-10T12:30:11.488Z,22.26
2019-05-10T12:32:55.736Z,22.24
2019-05-10T12:35:21.502Z,22.12
2019-05-10T12:37:54.418Z,21.96
2019-05-10T12:40:26.143Z,21.82
2019-05-10T12:42:57.891Z,21.72
2019-05-10T12:45:31.371Z,21.68
2019-05-10T12:48:02.908Z,21.67
2019-05-10T12:50:34.740Z,21.61
2019-05-10T12:53:14.034Z,21.56
2019-05-10T12:55:40.328Z,21.56
2019-05-10T12:58:12.072Z,21.53
2019-05-10T13:00:46.525Z,21.51
2019-05-10T13:03:19.378Z,21.47
2019-05-10T13:05:52.954Z,21.47
2019-05-10T13:08:24.012Z,21.51
2019-05-10T13:10:55.876Z,21.43
2019-05-10T13:13:30.083Z,21.34
2019-05-10T13:16:03.689Z,21.29
2019-05-10T13:18:49.736Z,21.23
2019-05-10T13:23:42.559Z,21.27
2019-05-10T13:26:14.399Z,21.29
2019-05-10T13:28:46.143Z,21.34
2019-05-10T13:31:17.919Z,21.41
2019-05-10T13:33:49.657Z,21.47
2019-05-10T13:36:21.411Z,21.47
2019-05-10T13:38:56.120Z,21.43
2019-05-10T13:41:27.989Z,21.39
2019-05-10T13:44:05.042Z,21.37
2019-05-10T13:46:33.062Z,21.36
2019-05-10T13:49:04.886Z,21.36
2019-05-10T13:51:36.516Z,21.34
2019-05-10T13:54:08.258Z,21.36
2019-05-10T13:56:45.202Z,21.34
2019-05-10T13:59:49.065Z,21.36
2019-05-10T14:02:31.947Z,21.37
2019-05-10T14:04:54.645Z,21.39
2019-05-10T14:07:26.395Z,21.39
2019-05-10T14:09:58.129Z,21.39
2019-05-10T14:12:29.960Z,21.41
2019-05-10T14:15:08.279Z,21.33
2019-05-10T14:17:35.394Z,21.27
2019-05-10T14:20:19.739Z,21.20
2019-05-10T14:22:48.363Z,21.13
2019-05-10T14:25:17.157Z,21.07
2019-05-10T14:27:49.365Z,21.06
2019-05-10T14:30:21.205Z,21.03
2019-05-10T14:32:52.959Z,20.92
2019-05-10T14:35:24.710Z,20.85
2019-05-10T14:38:07.512Z,20.75
2019-05-10T14:40:30.779Z,20.67
2019-05-10T14:43:02.779Z,20.48
2019-05-10T14:45:34.526Z,20.37
2019-05-10T14:48:06.252Z,20.20
2019-05-10T14:50:38.006Z,20.11
2019-05-10T14:53:13.601Z,20.11
2019-05-10T14:55:45.520Z,20.12
2019-05-10T14:58:18.505Z,20.23
2019-05-10T15:00:51.762Z,20.23
2019-05-10T15:03:25.232Z,20.23
2019-05-10T15:06:01.565Z,20.24
2019-05-10T15:08:34.321Z,20.26
2019-05-10T15:11:07.397Z,20.26
2019-05-10T15:13:39.423Z,20.24
2019-05-10T15:16:26.241Z,20.26
2019-05-10T15:18:50.442Z,20.23
2019-05-10T15:21:22.182Z,20.20
2019-05-10T15:24:00.774Z,20.12
2019-05-10T15:26:43.227Z,19.93
2019-05-10T15:29:22.070Z,19.79
2019-05-10T15:31:55.585Z,19.60
2019-05-10T15:34:28.125Z,19.46
2019-05-10T15:37:09.201Z,19.27
2019-05-10T15:39:38.596Z,19.13
2019-05-10T15:42:10.334Z,19.03
2019-05-10T15:44:42.104Z,18.88
2019-05-10T15:47:20.639Z,18.75
2019-05-10T15:49:47.081Z,18.60
2019-05-10T15:52:23.330Z,18.46
2019-05-10T15:54:53.286Z,18.32
2019-05-10T15:57:25.428Z,18.16
2019-05-10T15:59:59.181Z,18.04
2019-05-10T16:02:30.796Z,17.92
2019-05-10T16:05:02.572Z,17.80
2019-05-10T16:07:35.953Z,17.69
2019-05-10T16:10:08.248Z,17.56
2019-05-10T16:12:43.113Z,17.52
2019-05-10T16:15:19.937Z,17.42
2019-05-10T16:17:46.850Z,17.40
2019-05-10T16:20:18.730Z,17.36
2019-05-10T16:22:50.457Z,17.29
2019-05-10T16:25:22.223Z,17.22
2019-05-10T16:27:53.948Z,17.15
2019-05-10T16:30:25.714Z,17.07
2019-05-10T16:32:57.467Z,16.98
2019-05-10T16:35:38.323Z,16.88
2019-05-10T16:38:02.745Z,16.78
2019-05-10T16:40:34.603Z,16.68
2019-05-10T16:43:06.797Z,16.62
2019-05-10T16:45:39.927Z,16.52
2019-05-10T16:48:11.677Z,16.42
2019-05-10T16:50:43.437Z,16.35
2019-05-10T16:53:15.192Z,16.33
2019-05-10T16:55:46.963Z,16.32
2019-05-10T16:58:22.134Z,17.84
2019-05-10T17:00:52.052Z,19.74
2019-05-10T17:03:23.806Z,20.13
2019-05-10T17:05:58.644Z,19.65
2019-05-10T17:08:30.601Z,19.30
2019-05-10T17:11:09.611Z,19.02
2019-05-10T17:13:40.998Z,18.72
2019-05-10T17:16:11.662Z,18.47
2019-05-10T17:18:50.023Z,18.22
2019-05-10T17:21:19.033Z,17.99
2019-05-10T17:23:51.958Z,17.77
2019-05-10T17:26:23.703Z,17.54
2019-05-10T17:28:56.707Z,17.35
2019-05-10T17:31:28.468Z,17.17
2019-05-10T17:34:00.224Z,16.97
2019-05-10T17:36:31.978Z,16.84
2019-05-10T17:39:05.090Z,16.70
2019-05-10T17:41:36.764Z,17.66
2019-05-10T17:44:08.487Z,19.49
2019-05-10T17:46:40.875Z,20.92
2019-05-10T17:49:12.631Z,21.05
2019-05-10T17:51:44.408Z,20.50
2019-05-10T17:54:17.491Z,19.96
2019-05-10T17:56:49.151Z,19.54
2019-05-10T17:59:20.952Z,19.17
2019-05-10T18:01:52.735Z,18.84
2019-05-10T18:04:24.503Z,18.47
2019-05-10T18:06:56.143Z,18.13
2019-05-10T18:09:28.093Z,17.85
2019-05-10T18:11:59.748Z,17.54
2019-05-10T18:14:31.318Z,17.30
2019-05-10T18:17:02.887Z,17.04
2019-05-10T18:19:35.861Z,16.83
2019-05-10T18:22:07.650Z,17.88
2019-05-10T18:24:42.138Z,19.58
2019-05-10T18:27:14.044Z,21.07
2019-05-10T18:29:45.718Z,21.17
2019-05-10T18:32:17.504Z,20.48
2019-05-10T18:34:50.608Z,19.92
2019-05-10T18:37:23.367Z,19.43
2019-05-10T18:39:55.470Z,19.03
2019-05-10T18:42:27.954Z,18.63
2019-05-10T18:44:59.976Z,18.26
2019-05-10T18:47:33.391Z,17.87
2019-05-10T18:50:06.897Z,17.56
2019-05-10T18:52:38.552Z,17.26
2019-05-10T18:55:10.709Z,17.00
2019-05-10T18:57:45.306Z,17.85
2019-05-10T19:00:22.920Z,19.50
2019-05-10T19:02:55.212Z,20.88
2019-05-10T19:05:31.520Z,20.92
2019-05-10T19:08:05.320Z,20.22
2019-05-10T19:10:37.853Z,19.62
2019-05-10T19:13:09.838Z,19.13
2019-05-10T19:15:46.271Z,18.68
2019-05-10T19:18:17.687Z,18.26
2019-05-10T19:20:53.486Z,17.88
2019-05-10T19:23:25.789Z,17.52
2019-05-10T19:25:58.824Z,17.18
2019-05-10T19:28:30.606Z,16.84
2019-05-10T19:31:03.576Z,16.56
2019-05-10T19:33:38.085Z,16.31
2019-05-10T19:36:13.053Z,16.01
2019-05-10T19:38:42.530Z,16.93
2019-05-10T19:41:14.322Z,18.52
2019-05-10T19:43:49.900Z,19.92
2019-05-10T19:46:19.902Z,19.92
2019-05-10T19:48:51.662Z,19.26
2019-05-10T19:51:23.481Z,18.71
2019-05-10T19:53:55.214Z,18.25
2019-05-10T19:56:30.201Z,17.82
2019-05-10T19:59:05.438Z,17.49
2019-05-10T20:01:34.515Z,17.15
2019-05-10T20:04:09.361Z,16.81
2019-05-10T20:06:41.048Z,16.50
2019-05-10T20:09:13.812Z,16.24
2019-05-10T20:11:45.477Z,17.08
2019-05-10T20:14:17.429Z,18.80
2019-05-10T20:16:53.240Z,20.20
2019-05-10T20:19:24.203Z,20.30
2019-05-10T20:21:56.219Z,19.58
2019-05-10T20:24:27.982Z,18.98
2019-05-10T20:27:00.144Z,18.47
2019-05-10T20:29:37.087Z,18.07
2019-05-10T20:32:09.943Z,17.63
2019-05-10T20:34:41.789Z,17.28
2019-05-10T20:37:15.045Z,16.94
2019-05-10T20:39:46.820Z,16.57
2019-05-10T20:42:20.599Z,16.27
2019-05-10T20:45:06.182Z,16.00
2019-05-10T20:47:25.524Z,16.93
2019-05-10T20:49:58.459Z,18.66
2019-05-10T20:52:30.451Z,20.15
2019-05-10T20:55:06.457Z,20.19
2019-05-10T20:57:39.035Z,19.44
2019-05-10T21:00:13.062Z,18.82
2019-05-10T21:02:45.167Z,18.29
2019-05-10T21:05:17.039Z,17.85
2019-05-10T21:07:48.783Z,17.45
2019-05-10T21:10:20.553Z,17.10
2019-05-10T21:12:52.304Z,16.71
2019-05-10T21:15:24.058Z,16.39
2019-05-10T21:17:55.819Z,16.08
2019-05-10T21:20:27.609Z,15.78
2019-05-10T21:22:59.343Z,16.74
2019-05-10T21:25:31.067Z,18.44
2019-05-10T21:28:02.822Z,19.77
2019-05-10T21:30:37.534Z,19.78
2019-05-10T21:33:09.409Z,19.02
2019-05-10T21:35:41.139Z,18.37
2019-05-10T21:38:13.912Z,17.91
2019-05-10T21:40:45.687Z,17.45
2019-05-10T21:43:17.423Z,17.04
2019-05-10T21:45:49.185Z,16.63
2019-05-10T21:48:20.859Z,16.27
2019-05-10T21:50:52.610Z,15.91
2019-05-10T21:53:24.361Z,15.55
2019-05-10T21:55:56.210Z,16.35
2019-05-10T21:58:27.978Z,18.05
2019-05-10T22:00:59.729Z,19.10
2019-05-10T22:03:32.675Z,18.39
2019-05-10T22:06:04.775Z,17.69
2019-05-10T22:08:48.799Z,17.14
2019-05-10T22:11:11.687Z,16.64
2019-05-10T22:13:43.444Z,16.17
2019-05-10T22:16:15.203Z,16.56
2019-05-10T22:18:48.975Z,18.18
2019-05-10T22:21:25.526Z,18.50
2019-05-10T22:23:57.484Z,17.76
2019-05-10T22:26:31.312Z,17.08
2019-05-10T22:29:03.158Z,16.56
2019-05-10T22:31:34.931Z,16.07
2019-05-10T22:34:06.677Z,15.60
2019-05-10T22:36:38.416Z,16.38
2019-05-10T22:39:10.180Z,17.90
2019-05-10T22:41:41.913Z,19.06
2019-05-10T22:44:13.661Z,18.37
2019-05-10T22:46:45.424Z,17.58
2019-05-10T22:49:17.165Z,16.91
2019-05-10T22:51:49.004Z,16.36
2019-05-10T22:54:20.740Z,15.90
2019-05-10T22:56:52.486Z,16.39
2019-05-10T22:59:24.134Z,17.98
2019-05-10T23:01:55.979Z,18.08
2019-05-10T23:04:27.723Z,17.33
2019-05-10T23:06:59.572Z,16.70
2019-05-10T23:09:31.613Z,16.14
2019-05-10T23:12:03.368Z,15.73
2019-05-10T23:14:35.144Z,16.40
2019-05-10T23:17:07.181Z,17.77
2019-05-10T23:19:38.915Z,17.35
2019-05-10T23:22:10.648Z,16.66
2019-05-10T23:24:42.504Z,16.10
2019-05-10T23:27:14.240Z,15.63
2019-05-10T23:29:45.973Z,15.18
2019-05-10T23:32:17.910Z,16.22
2019-05-10T23:34:49.752Z,17.80
2019-05-10T23:37:21.613Z,17.57
2019-05-10T23:39:53.322Z,16.87
2019-05-10T23:42:25.055Z,16.22
2019-05-10T23:44:56.795Z,15.70
2019-05-10T23:47:28.527Z,15.24
2019-05-10T23:50:00.363Z,15.81
2019-05-10T23:52:32.097Z,17.26
2019-05-10T23:55:04.973Z,17.90
2019-05-10T23:57:38.372Z,17.19
